Hovedside
METAR-TAF:

METAR-TAF

Lufthavner :

Östersund-Frösön, Sverige

Åre Östersund lufthavn

breddegrad: 63-11N, lengdegrad: 014-30E, høyde over havet: 376 m

Gjeldene værobservasjon

Denne rapporten ble laget for 15 minutter siden, klokken 07:20 UTC
Vind 14 kt fra Vest
Temperatur 4°C
Luftfuktighet 81%
Trykk 1003 hPa
Sikt 10 km eller mer
Få skyer i en høyde av 3300 ft

METAR: ESNZ 210720Z 28014KT 9999 FEW033 04/01 Q1003

Tid: 09:35 (07:35 UTC)

Varsel

Denne rapporten ble laget for 2 timer og 5 minutter siden, klokken 05:30 UTC
Varsel gyldig fra 21. klokken 06 UTC til 21. klokken 15 UTC
Vind 14 kt fra Vest
Sikt 10 km eller mer
ingen skyer under 1500 m og ingen bygeskyer

TAF: ESNZ 210530Z 2106/2115 27014KT CAVOK

Værobservasjoner og værvarsel for over 4000 flyplasser (METAR- og TAF-rapporter).

Tilgjengelige stasjoner er representert av de røde og gule prikkene på kartet.

Hold musepekeren over prikken for å se navnet på stasjonen.

Klikk så for å se værobservasjoner og -varsler.

For å forandre kartet kan du klikke på den grønne knappen med svart kryss for å zoome inn, på den grønne knappen med strek for å zoome ut, eller på de grønne pilene for å se tilstøtende kart.


METAR-TAF: